createdAt,value
2022-08-24T00:02:01.867Z,22.27
2022-08-24T00:04:33.718Z,26.87
2022-08-24T00:07:03.535Z,22.07
2022-08-24T00:09:33.825Z,22.77
2022-08-24T00:12:03.079Z,23.80
2022-08-24T00:14:32.876Z,22.73
2022-08-24T00:17:02.328Z,22.43
2022-08-24T00:19:33.551Z,23.83
2022-08-24T00:22:02.934Z,23.43
2022-08-24T00:24:32.060Z,22.07
2022-08-24T00:27:00.949Z,23.40
2022-08-24T00:29:29.770Z,23.00
2022-08-24T00:31:58.616Z,22.40
2022-08-24T00:34:27.905Z,23.17
2022-08-24T00:36:58.034Z,22.10
2022-08-24T00:39:27.714Z,22.70
2022-08-24T00:41:56.571Z,22.20
2022-08-24T00:44:26.566Z,22.73
2022-08-24T00:46:58.448Z,20.70
2022-08-24T00:49:30.310Z,21.77
2022-08-24T00:52:05.362Z,22.80
2022-08-24T00:54:42.828Z,22.63
2022-08-24T00:57:19.002Z,22.60
2022-08-24T00:59:53.735Z,21.20
2022-08-24T01:02:25.343Z,22.13
2022-08-24T01:04:56.568Z,22.97
2022-08-24T01:07:30.122Z,22.27
2022-08-24T01:10:02.324Z,21.80
2022-08-24T01:12:34.673Z,22.27
2022-08-24T01:15:06.377Z,21.77
2022-08-24T01:17:52.879Z,23.93
2022-08-24T01:20:23.556Z,25.33
2022-08-24T01:23:02.179Z,21.47
2022-08-24T01:25:34.637Z,22.90
2022-08-24T01:28:09.687Z,25.03
2022-08-24T01:30:38.564Z,25.37
2022-08-24T01:33:11.450Z,24.40
2022-08-24T01:35:41.069Z,24.30
2022-08-24T01:38:12.724Z,24.43
2022-08-24T01:40:47.017Z,25.30
2022-08-24T01:43:16.333Z,23.33
2022-08-24T01:45:45.401Z,24.10
2022-08-24T01:48:15.472Z,24.03
2022-08-24T01:50:52.752Z,22.40
2022-08-24T01:53:21.553Z,25.90
2022-08-24T01:55:51.649Z,20.93
2022-08-24T01:58:20.564Z,22.77
2022-08-24T02:00:49.716Z,22.10
2022-08-24T02:03:18.970Z,23.33
2022-08-24T02:05:48.401Z,21.90
2022-08-24T02:08:17.215Z,22.43
2022-08-24T02:10:48.755Z,23.47
2022-08-24T02:13:28.866Z,22.67
2022-08-24T02:15:58.514Z,22.03
2022-08-24T02:18:27.332Z,22.23
2022-08-24T02:20:56.149Z,21.37
2022-08-24T02:23:25.130Z,22.50
2022-08-24T02:25:53.851Z,22.10
2022-08-24T02:28:22.803Z,24.37
2022-08-24T02:30:53.720Z,21.13
2022-08-24T02:33:23.674Z,22.27
2022-08-24T02:35:53.738Z,22.17
2022-08-24T02:38:23.578Z,22.07
2022-08-24T02:40:52.424Z,20.93
2022-08-24T02:43:21.476Z,22.80
2022-08-24T02:45:50.675Z,22.23
2022-08-24T02:48:21.420Z,23.10
2022-08-24T02:50:52.688Z,23.50
2022-08-24T02:53:24.421Z,22.93
2022-08-24T02:55:53.665Z,23.63
2022-08-24T02:58:22.562Z,20.93
2022-08-24T03:00:51.390Z,21.53
2022-08-24T03:03:21.978Z,23.70
2022-08-24T03:05:50.675Z,21.90
2022-08-24T03:08:21.228Z,22.37
2022-08-24T03:10:50.409Z,22.33
2022-08-24T03:13:19.246Z,23.20
2022-08-24T03:15:48.006Z,22.83
2022-08-24T03:18:16.828Z,23.27
2022-08-24T03:20:49.780Z,22.27
2022-08-24T03:23:20.494Z,23.60
2022-08-24T03:25:49.231Z,23.53
2022-08-24T03:28:18.178Z,22.63
2022-08-24T03:30:48.753Z,22.30
2022-08-24T03:33:18.992Z,30.07
2022-08-24T03:35:49.447Z,23.57
2022-08-24T03:38:18.610Z,21.93
2022-08-24T03:40:47.547Z,22.57
2022-08-24T03:43:30.455Z,22.00
2022-08-24T03:45:59.418Z,22.50
2022-08-24T03:48:28.685Z,23.60
2022-08-24T03:50:59.209Z,21.37
2022-08-24T03:53:28.244Z,22.07
2022-08-24T03:55:57.582Z,20.53
2022-08-24T03:58:27.780Z,22.30
2022-08-24T04:00:58.445Z,21.50
2022-08-24T04:03:28.442Z,21.40
2022-08-24T04:06:02.917Z,22.70
2022-08-24T04:08:32.317Z,25.83
2022-08-24T04:11:01.574Z,23.17
2022-08-24T04:13:32.370Z,21.57
2022-08-24T04:16:06.329Z,24.53
2022-08-24T04:18:35.344Z,22.83
2022-08-24T04:21:06.585Z,21.43
2022-08-24T04:23:46.772Z,24.40
2022-08-24T04:26:43.387Z,23.23
2022-08-24T04:29:10.221Z,24.83
2022-08-24T04:31:40.264Z,25.00
2022-08-24T04:34:10.748Z,24.33
2022-08-24T04:36:49.793Z,24.37
2022-08-24T04:39:18.966Z,23.43
2022-08-24T04:41:48.197Z,21.90
2022-08-24T04:44:22.920Z,23.37
2022-08-24T04:46:52.048Z,22.40
2022-08-24T04:49:21.185Z,23.90
2022-08-24T04:51:51.412Z,22.70
2022-08-24T04:54:20.678Z,24.13
2022-08-24T04:56:49.745Z,23.13
2022-08-24T04:59:18.603Z,24.93
2022-08-24T05:01:47.511Z,23.50
2022-08-24T05:04:16.366Z,25.00
2022-08-24T05:06:45.339Z,25.03
2022-08-24T05:09:15.672Z,27.07
2022-08-24T05:11:49.741Z,25.23
2022-08-24T05:14:19.341Z,25.60
2022-08-24T05:16:53.211Z,23.67
2022-08-24T05:19:26.627Z,24.57
2022-08-24T05:21:55.982Z,21.93
2022-08-24T05:24:27.157Z,24.10
2022-08-24T05:26:55.914Z,26.90
2022-08-24T05:29:25.135Z,27.13
2022-08-24T05:31:54.761Z,24.23
2022-08-24T05:34:27.127Z,26.43
2022-08-24T05:36:56.409Z,24.10
2022-08-24T05:39:28.535Z,25.50
2022-08-24T05:41:57.559Z,25.53
2022-08-24T05:44:30.833Z,24.40
2022-08-24T05:47:02.181Z,29.70
2022-08-24T05:49:31.157Z,27.83
2022-08-24T05:52:00.234Z,26.93
2022-08-24T05:54:30.428Z,28.77
2022-08-24T05:57:04.585Z,24.13
2022-08-24T05:59:35.806Z,27.17
2022-08-24T06:02:05.089Z,25.40
2022-08-24T06:04:34.830Z,25.10
2022-08-24T06:07:04.292Z,27.37
2022-08-24T06:09:34.413Z,32.63
2022-08-24T06:12:04.463Z,38.23
2022-08-24T06:14:35.575Z,33.37
2022-08-24T06:17:07.024Z,28.73
2022-08-24T06:19:36.565Z,28.17
2022-08-24T06:22:05.443Z,36.10
2022-08-24T06:25:01.179Z,27.57
2022-08-24T06:27:31.381Z,32.10
2022-08-24T06:30:03.284Z,25.50
2022-08-24T06:32:32.514Z,28.40
2022-08-24T06:35:01.652Z,27.13
2022-08-24T06:37:31.793Z,33.00
2022-08-24T06:40:03.698Z,30.37
2022-08-24T06:42:35.340Z,36.60
2022-08-24T06:45:04.542Z,31.20
2022-08-24T06:47:33.565Z,33.47
2022-08-24T06:50:03.130Z,34.17
2022-08-24T06:52:32.921Z,33.00
2022-08-24T06:55:03.482Z,29.60
2022-08-24T06:57:34.038Z,33.77
2022-08-24T07:00:05.169Z,30.80
2022-08-24T07:02:34.968Z,29.10
2022-08-24T07:05:04.328Z,36.57
2022-08-24T07:07:33.321Z,43.33
2022-08-24T07:10:03.444Z,40.23
2022-08-24T07:12:32.433Z,36.10
2022-08-24T07:15:01.227Z,39.90
2022-08-24T07:17:30.165Z,42.47
2022-08-24T07:19:58.989Z,31.40
2022-08-24T07:22:27.906Z,36.33
2022-08-24T07:24:56.823Z,34.57
2022-08-24T07:27:26.947Z,32.77
2022-08-24T07:30:16.251Z,36.63
2022-08-24T07:32:44.888Z,32.50
2022-08-24T07:35:14.194Z,37.40
2022-08-24T07:37:43.214Z,43.80
2022-08-24T07:40:12.901Z,31.17
2022-08-24T07:42:43.332Z,34.33
2022-08-24T07:45:12.761Z,32.03
2022-08-24T07:47:49.680Z,35.63
2022-08-24T07:50:23.847Z,32.13
2022-08-24T07:52:53.005Z,36.47
2022-08-24T07:55:21.833Z,31.97
2022-08-24T07:57:52.636Z,31.20
2022-08-24T08:00:22.470Z,28.50
2022-08-24T08:02:51.215Z,32.33
2022-08-24T08:05:22.836Z,28.50
2022-08-24T08:07:52.663Z,28.67
2022-08-24T08:10:23.754Z,31.43
2022-08-24T08:12:54.291Z,28.63
2022-08-24T08:15:23.038Z,28.67
2022-08-24T08:17:52.721Z,29.17
2022-08-24T08:20:25.264Z,30.80
2022-08-24T08:23:17.019Z,27.13
2022-08-24T08:25:49.580Z,26.57
2022-08-24T08:28:25.984Z,26.10
2022-08-24T08:31:03.254Z,27.90
2022-08-24T08:33:33.162Z,27.13
2022-08-24T08:36:06.855Z,26.37
2022-08-24T08:38:36.684Z,29.07
2022-08-24T08:41:25.977Z,25.13
2022-08-24T08:44:03.247Z,28.27
2022-08-24T08:46:46.461Z,29.17
2022-08-24T08:49:51.886Z,26.23
2022-08-24T08:53:06.632Z,26.70
2022-08-24T08:55:41.209Z,25.57
2022-08-24T08:58:21.074Z,27.47
2022-08-24T09:01:04.765Z,25.20
2022-08-24T09:04:07.163Z,27.43
2022-08-24T09:06:53.587Z,26.13
2022-08-24T09:09:54.260Z,27.50
2022-08-24T09:12:32.977Z,25.33
2022-08-24T09:15:15.143Z,24.27
2022-08-24T09:18:00.533Z,25.00
2022-08-24T09:20:51.113Z,26.10
2022-08-24T09:23:36.547Z,27.03
2022-08-24T09:26:10.555Z,25.37
2022-08-24T09:28:46.692Z,27.07
2022-08-24T09:31:58.765Z,25.63
2022-08-24T09:34:37.220Z,24.53
2022-08-24T09:37:28.133Z,24.57
2022-08-24T09:40:03.560Z,26.10
2022-08-24T09:43:24.711Z,25.90
2022-08-24T09:46:19.106Z,24.60
2022-08-24T09:49:14.038Z,24.37
2022-08-24T09:52:39.300Z,25.30
2022-08-24T09:55:35.028Z,25.00
2022-08-24T09:58:20.801Z,24.23
2022-08-24T10:00:57.167Z,25.40
2022-08-24T10:03:50.845Z,27.50
2022-08-24T10:06:29.803Z,24.37
2022-08-24T10:09:15.565Z,26.27
2022-08-24T10:12:00.545Z,25.93
2022-08-24T10:14:45.681Z,25.37
2022-08-24T10:17:21.919Z,25.60
2022-08-24T10:20:04.434Z,26.70
2022-08-24T10:22:50.583Z,26.17
2022-08-24T10:25:33.102Z,27.03
2022-08-24T10:28:25.603Z,26.43
2022-08-24T10:31:03.470Z,26.53
2022-08-24T10:33:39.077Z,26.80
2022-08-24T10:36:44.140Z,25.13
2022-08-24T10:39:41.241Z,26.00
2022-08-24T10:42:51.859Z,26.40
2022-08-24T10:46:00.823Z,27.97
2022-08-24T10:48:57.119Z,26.13
2022-08-24T10:51:37.171Z,26.10
2022-08-24T10:54:06.806Z,27.20
2022-08-24T10:56:43.970Z,27.75
2022-08-24T10:59:25.344Z,27.15
2022-08-24T11:02:12.401Z,26.35
2022-08-24T11:04:42.148Z,26.17
2022-08-24T11:07:18.471Z,25.85
2022-08-24T11:09:51.825Z,27.65
2022-08-24T11:12:27.261Z,26.58
2022-08-24T11:14:59.563Z,26.83
2022-08-24T11:17:30.188Z,27.45
2022-08-24T11:19:59.803Z,26.40
2022-08-24T11:22:37.858Z,27.02
2022-08-24T11:25:14.833Z,26.52
2022-08-24T11:27:46.079Z,28.73
2022-08-24T11:30:25.335Z,27.98
2022-08-24T11:32:58.188Z,26.42
2022-08-24T11:35:36.394Z,28.75
2022-08-24T11:38:16.891Z,26.25
2022-08-24T11:40:52.683Z,27.80
2022-08-24T11:43:32.347Z,27.25
2022-08-24T11:46:14.212Z,27.48
2022-08-24T11:48:51.982Z,28.00
2022-08-24T11:51:31.511Z,27.13
2022-08-24T11:54:06.382Z,28.38
2022-08-24T11:56:46.289Z,26.13
2022-08-24T11:59:22.572Z,27.40
2022-08-24T12:01:57.865Z,27.40
2022-08-24T12:04:39.330Z,25.33
2022-08-24T12:07:20.754Z,29.23
2022-08-24T12:10:11.105Z,26.75
2022-08-24T12:12:46.483Z,27.00
2022-08-24T12:15:21.340Z,27.73
2022-08-24T12:18:01.875Z,26.65
2022-08-24T12:20:36.006Z,27.58
2022-08-24T12:23:09.439Z,27.13
2022-08-24T12:25:56.525Z,27.85
2022-08-24T12:28:31.223Z,26.25
2022-08-24T12:31:08.140Z,27.80
2022-08-24T12:33:41.383Z,25.65
2022-08-24T12:36:19.699Z,26.25
2022-08-24T12:38:55.212Z,26.98
2022-08-24T12:41:30.685Z,26.83
2022-08-24T12:44:06.490Z,24.90
2022-08-24T12:46:37.643Z,27.85
2022-08-24T12:49:16.265Z,26.23
2022-08-24T12:52:01.803Z,26.38
2022-08-24T12:54:50.715Z,27.10
2022-08-24T12:57:51.831Z,25.92
2022-08-24T13:00:27.072Z,26.70
2022-08-24T13:03:00.270Z,25.27
2022-08-24T13:05:41.865Z,27.63
2022-08-24T13:08:13.410Z,26.25
2022-08-24T13:10:45.455Z,27.20
2022-08-24T13:13:23.786Z,26.75
2022-08-24T13:16:03.658Z,25.73
2022-08-24T13:19:10.956Z,26.83
2022-08-24T13:21:52.898Z,28.02
2022-08-24T13:25:00.484Z,26.73
2022-08-24T13:28:15.235Z,27.33
2022-08-24T13:31:18.435Z,26.85
2022-08-24T13:33:50.135Z,26.27
2022-08-24T13:37:06.814Z,25.85
2022-08-24T13:39:50.944Z,25.67
2022-08-24T13:42:57.227Z,24.65
2022-08-24T13:45:36.599Z,26.65
2022-08-24T13:48:21.783Z,27.27
2022-08-24T13:51:17.144Z,26.65
2022-08-24T13:54:20.389Z,26.60
2022-08-24T13:57:04.554Z,26.67
2022-08-24T13:59:54.538Z,26.48
2022-08-24T14:02:32.477Z,24.85
2022-08-24T14:05:10.428Z,26.05
2022-08-24T14:07:54.183Z,25.80
2022-08-24T14:10:43.332Z,27.63
2022-08-24T14:13:32.661Z,26.83
2022-08-24T14:16:38.467Z,27.10
2022-08-24T14:28:44.274Z,25.58
2022-08-24T14:31:20.328Z,25.63
2022-08-24T14:34:04.667Z,26.17
2022-08-24T14:36:48.339Z,25.77
2022-08-24T14:39:38.678Z,26.73
2022-08-24T14:45:27.917Z,26.10
2022-08-24T14:48:05.696Z,26.55
2022-08-24T14:50:41.146Z,26.55
2022-08-24T14:53:45.470Z,26.95
2022-08-24T14:56:25.018Z,25.65
2022-08-24T14:59:03.881Z,26.95
2022-08-24T15:01:45.634Z,28.90
2022-08-24T15:04:37.159Z,26.30
2022-08-24T15:07:30.062Z,27.40
2022-08-24T15:10:01.296Z,28.10
2022-08-24T15:12:39.549Z,27.85
2022-08-24T15:15:19.357Z,28.40
2022-08-24T15:17:59.015Z,25.00
2022-08-24T15:20:45.680Z,27.48
2022-08-24T15:23:20.985Z,26.88
2022-08-24T15:25:55.588Z,27.17
2022-08-24T15:28:28.246Z,25.73
2022-08-24T15:31:00.799Z,26.73
2022-08-24T15:33:32.446Z,26.83
2022-08-24T15:36:11.699Z,27.55
2022-08-24T15:38:42.004Z,26.08
2022-08-24T15:41:15.867Z,27.52
2022-08-24T15:43:48.666Z,27.50
2022-08-24T15:46:21.952Z,25.80
2022-08-24T15:48:54.765Z,25.45
2022-08-24T15:51:36.939Z,25.55
2022-08-24T15:54:22.771Z,28.10
2022-08-24T15:56:57.639Z,27.00
2022-08-24T15:59:29.224Z,27.58
2022-08-24T16:02:26.764Z,27.23
2022-08-24T16:05:11.111Z,27.67
2022-08-24T16:08:11.379Z,26.90
2022-08-24T16:10:43.138Z,27.08
2022-08-24T16:13:27.118Z,26.45
2022-08-24T16:16:17.224Z,27.23
2022-08-24T16:18:51.186Z,27.27
2022-08-24T16:21:29.797Z,25.27
2022-08-24T16:24:08.042Z,25.38
2022-08-24T16:26:55.906Z,26.98
2022-08-24T16:29:55.784Z,25.83
2022-08-24T16:32:32.052Z,26.00
2022-08-24T16:35:22.636Z,27.00
2022-08-24T16:37:54.883Z,25.20
2022-08-24T16:40:25.420Z,26.77
2022-08-24T16:42:58.682Z,27.45
2022-08-24T16:45:27.640Z,29.05
2022-08-24T16:47:56.372Z,27.52
2022-08-24T16:50:27.204Z,27.25
2022-08-24T16:52:59.253Z,26.83
2022-08-24T16:55:29.012Z,26.85
2022-08-24T16:57:57.929Z,27.67
2022-08-24T17:00:26.789Z,25.67
2022-08-24T17:02:55.593Z,28.48
2022-08-24T17:05:24.863Z,25.90
2022-08-24T17:07:54.284Z,25.15
2022-08-24T17:10:26.454Z,25.45
2022-08-24T17:12:55.748Z,27.58
2022-08-24T17:15:25.488Z,27.00
2022-08-24T17:18:01.046Z,24.52
2022-08-24T17:20:30.052Z,25.00
2022-08-24T17:23:01.858Z,27.00
2022-08-24T17:25:33.100Z,27.15
2022-08-24T17:28:04.105Z,26.95
2022-08-24T17:30:33.288Z,28.05
2022-08-24T17:33:02.220Z,24.95
2022-08-24T17:35:31.720Z,27.60
2022-08-24T17:38:01.501Z,27.45
2022-08-24T17:40:32.639Z,26.77
2022-08-24T17:43:01.914Z,27.67
2022-08-24T17:45:31.056Z,26.00
2022-08-24T17:47:59.821Z,28.30
2022-08-24T17:50:29.897Z,25.58
2022-08-24T17:53:00.281Z,26.02
2022-08-24T17:55:29.622Z,27.48
2022-08-24T17:58:03.124Z,26.33
2022-08-24T18:00:31.909Z,27.30
2022-08-24T18:03:02.251Z,27.20
2022-08-24T18:05:34.017Z,26.43
2022-08-24T18:08:04.021Z,26.97
2022-08-24T18:10:33.946Z,29.57
2022-08-24T18:13:05.562Z,27.63
2022-08-24T18:15:38.315Z,26.97
2022-08-24T18:18:09.626Z,26.37
2022-08-24T18:20:43.282Z,29.17
2022-08-24T18:23:12.988Z,25.57
2022-08-24T18:25:50.789Z,25.37
2022-08-24T18:28:24.835Z,24.60
2022-08-24T18:30:57.143Z,24.40
2022-08-24T18:33:26.647Z,24.63
2022-08-24T18:35:56.133Z,23.93
2022-08-24T18:38:28.127Z,23.77
2022-08-24T18:40:57.155Z,24.73
2022-08-24T18:43:27.920Z,25.37
2022-08-24T18:45:56.699Z,25.53
2022-08-24T18:48:25.944Z,26.33
2022-08-24T18:50:56.283Z,26.20
2022-08-24T18:56:28.860Z,25.53
2022-08-24T18:59:03.303Z,27.38
2022-08-24T19:01:55.245Z,28.20
2022-08-24T19:04:30.257Z,24.00
2022-08-24T19:07:02.840Z,24.63
2022-08-24T19:09:34.290Z,24.30
2022-08-24T19:12:04.026Z,25.43
2022-08-24T19:14:35.159Z,24.43
2022-08-24T19:17:04.559Z,25.17
2022-08-24T19:19:33.600Z,23.73
2022-08-24T19:22:04.681Z,24.67
2022-08-24T19:24:34.593Z,25.13
2022-08-24T19:27:03.483Z,25.27
2022-08-24T19:29:54.527Z,24.30
2022-08-24T19:32:26.221Z,24.73
2022-08-24T19:34:55.953Z,24.50
2022-08-24T19:37:25.277Z,26.90
2022-08-24T19:39:54.313Z,26.27
2022-08-24T19:42:24.241Z,24.57
2022-08-24T19:45:13.844Z,24.87
2022-08-24T19:47:42.833Z,23.67
2022-08-24T19:50:14.406Z,25.33
2022-08-24T19:52:52.563Z,23.90
2022-08-24T19:55:22.397Z,24.00
2022-08-24T19:57:55.104Z,23.57
2022-08-24T20:00:35.044Z,24.20
2022-08-24T20:03:06.276Z,24.90
2022-08-24T20:05:37.827Z,24.90
2022-08-24T20:08:06.871Z,24.20
2022-08-24T20:10:36.992Z,23.83
2022-08-24T20:13:05.954Z,25.43
2022-08-24T20:15:36.548Z,26.37
2022-08-24T20:18:05.903Z,22.93
2022-08-24T20:20:34.846Z,23.00
2022-08-24T20:23:06.373Z,24.73
2022-08-24T20:25:36.258Z,24.67
2022-08-24T20:28:28.222Z,24.80
2022-08-24T20:30:57.228Z,23.53
2022-08-24T20:33:28.129Z,24.87
2022-08-24T20:35:57.402Z,22.97
2022-08-24T20:38:31.720Z,23.17
2022-08-24T20:41:03.166Z,25.87
2022-08-24T20:43:31.866Z,24.40
2022-08-24T20:46:02.692Z,23.53
2022-08-24T20:48:36.001Z,22.80
2022-08-24T20:51:07.200Z,22.80
2022-08-24T20:53:35.923Z,23.97
2022-08-24T20:56:08.792Z,23.27
2022-08-24T20:58:40.549Z,23.80
2022-08-24T21:01:11.067Z,23.67
2022-08-24T21:03:40.406Z,25.43
2022-08-24T21:06:11.434Z,23.93
2022-08-24T21:08:43.589Z,24.40
2022-08-24T21:11:12.556Z,24.00
2022-08-24T21:13:43.393Z,23.17
2022-08-24T21:16:17.048Z,24.57
2022-08-24T21:18:46.909Z,23.77
2022-08-24T21:21:15.775Z,22.60
2022-08-24T21:23:44.599Z,24.73
2022-08-24T21:26:16.493Z,23.67
2022-08-24T21:28:53.641Z,23.13
2022-08-24T21:31:24.073Z,24.37
2022-08-24T21:34:11.288Z,23.87
2022-08-24T21:36:42.457Z,25.63
2022-08-24T21:39:11.395Z,24.37
2022-08-24T21:41:40.319Z,24.20
2022-08-24T21:44:09.474Z,24.80
2022-08-24T21:46:41.304Z,25.73
2022-08-24T21:49:11.940Z,25.27
2022-08-24T21:51:41.326Z,25.00
2022-08-24T21:54:11.273Z,25.23
2022-08-24T21:56:40.552Z,24.57
2022-08-24T21:59:09.400Z,25.80
2022-08-24T22:01:41.003Z,26.07
2022-08-24T22:04:09.804Z,25.07
2022-08-24T22:06:38.689Z,26.60
2022-08-24T22:09:08.468Z,25.77
2022-08-24T22:11:38.053Z,26.47
2022-08-24T22:14:08.740Z,26.40
2022-08-24T22:16:38.018Z,26.20
2022-08-24T22:19:08.952Z,26.37
2022-08-24T22:21:44.634Z,25.30
2022-08-24T22:24:16.342Z,26.07
2022-08-24T22:26:45.974Z,24.77
2022-08-24T22:29:15.266Z,24.40
2022-08-24T22:31:46.435Z,26.73
2022-08-24T22:34:21.098Z,24.73
2022-08-24T22:36:50.730Z,25.20
2022-08-24T22:39:19.448Z,24.10
2022-08-24T22:41:48.120Z,24.70
2022-08-24T22:44:22.804Z,24.43
2022-08-24T22:46:53.974Z,24.73
2022-08-24T22:49:26.596Z,25.33
2022-08-24T22:51:55.788Z,24.20
2022-08-24T22:54:26.364Z,25.53
2022-08-24T22:56:58.454Z,25.47
2022-08-24T22:59:30.268Z,25.27
2022-08-24T23:01:59.680Z,25.50
2022-08-24T23:04:33.173Z,25.30
2022-08-24T23:07:02.663Z,23.97
2022-08-24T23:09:31.987Z,26.97
2022-08-24T23:12:14.472Z,26.47
2022-08-24T23:14:43.884Z,23.60
2022-08-24T23:17:13.272Z,25.40
2022-08-24T23:20:06.429Z,25.83
2022-08-24T23:22:37.800Z,26.97
2022-08-24T23:25:07.967Z,25.63
2022-08-24T23:27:38.422Z,27.07
2022-08-24T23:30:11.153Z,26.67
2022-08-24T23:32:40.388Z,25.43
2022-08-24T23:35:11.221Z,25.57
2022-08-24T23:37:40.869Z,24.37
2022-08-24T23:40:11.208Z,24.70
2022-08-24T23:42:40.007Z,26.73
2022-08-24T23:45:12.266Z,26.50
2022-08-24T23:47:41.945Z,23.47
2022-08-24T23:50:13.082Z,23.80
2022-08-24T23:52:41.948Z,23.83
2022-08-24T23:55:20.287Z,24.93
2022-08-24T23:57:52.076Z,25.00
